お掃除お掃除ーーーー!!

LUXURY FLIGHT

080-7560-1817

羽田空港本店: 所在地: 東京都大田区羽田空港3-3-2    セントレア店: 所在地: 愛知県常滑市セントレア1-1      HICityファイター店: 所在地: 東京都大田区羽田空港1-1-4
           第1旅客ターミナル5階                  FLIGHT OF DREAMS FLIGHT PARK                 HANEDA INNOVATION CITY ZONE-J 2-5
      営業時間: 10:00~20:00 定休日: 年中無休         営業時間: 10:00~20:00 定休日: 年中無休             営業時間: 10:00~20:00 定休日: 年中無休
      電話番号: 080-7560-1817                  電話番号: 080-4945-5666                     電話番号: 03-5579-7980

lv

お掃除お掃除ーーーー!!

STAFF BLOG

2019/07/23 お掃除お掃除ーーーー!!

こんにちはーーーーーーーー

 

本日の羽田METAR

RJTT 230630Z 07004KT 9999 FEW010 SCT040 BKN050 27/25 Q1004

NOSIG RMK 1CU010 3CU040 7SC050 A2967

 

蒸し暑くなってまいりました!!

羽田では今年初めてセミの声を聞いておりますーーー

 

そんな中、コンピューターが詰まって詰まって詰まっている弊社シミュレーターを夏バテさせる訳にはイカン!!

ということでお掃除タイムの始まりです

 

 

 

img_2428

モニターの裏に溜まったホコリがなかなか手強そう…

 

ホコリってのは、「え!? ココにそんな溜まるか??」ってトコに結構いるものでして…

そこは一般のご家庭と何ら変わらずかと思います。

アタマに来たんでスタッフ総出で徹底的にホコリちゃんをぶっ潰しました

 

来てくださった方にナイスフライトをしていただく為、日々隙間時間に頑張っておりまーす!!

 

フライト中、些細な汚れ等やホコリがございましたら何なりとお叱りください!!笑

 

いつもブログを読んでくださり本当にありがとうございます。

 

ありがとうございました。

 

「感謝」

 

 

 

 

 

 

 

 

 

TOP